Abakan, Russia

4:18 AM KRAT on April 02, 2015 (GMT +0700)
Abakan | | Change Station
CLOSE
Current Station
Airport
Location: Abakan,
Elevation: 804 ft
Nearby Weather Stations

Elev 804 ft 53.74 °N, 91.39 °E | Updated 18 minutes ago

Overcast
Overcast
27 °F
Feels Like 18 °F
N
9
Wind Variable Wind from SW

Today
High -- | Low -- °F
--% Chance of Precip.
Yesterday
High -- | Low -- °F
Precip. -- in
6:26 AM 7:30 PM
Waxing Gibbous, 94% visible
Pressure 30.01 in
Visibility 6.2 miles
Clouds Scattered Clouds 3300 ft
Overcast 17000 ft
Windchill 18 °F
Dew Point 19 °F
Humidity 74%
Rainfall 0.00 in
Snow Depth Not available.
UV 0 out of 12
Pollen Not available.
Air Quality Not available.
Flu Activity Not available.
METAR UNAA 012100Z 22004MPS 9999 SCT033CB OVC170 M03/M07 Q1016 NOSIG RMK QFE739 20190055

More Conditions Fewer Conditions

Pressure 30.01 in
Visibility 6.2 miles
Clouds Scattered Clouds 3300 ft
Overcast 17000 ft
Windchill 18 °F
Dew Point 19 °F
Humidity 74%
Rainfall 0.00 in
Snow Depth Not available.
UV 0 out of 12
Pollen Not available.
Air Quality Not available.
Flu Activity Not available.
METAR UNAA 012100Z 22004MPS 9999 SCT033CB OVC170 M03/M07 Q1016 NOSIG RMK QFE739 20190055

More Conditions Fewer Conditions

10-Day Weather Forecast

Almanac

Astronomy

Apr. 02, 2015 Rise Set
Actual Time
Civil Twilight
Nautical Twilight
Astronomical Twilight
Moon
Length of Visible Light
Length of Day
Tomorrow will be .
, % of the Moon is Illuminated

Today's Extremes

Country Highs Country Lows

Community

WunderPhotos

Upload Photos

1,810,088 photos uploaded!

WunderBlogs® & News

Nearby

Air Quality

  Air Quality AQ Index Pollutant
Not available.

Snow Depth

Station Depth Elevation

Earthquake Activity

City Distance Mag. Time & Date
Minimum magnitude displayed is 2.5.

Coastal Water Temperatures

Place Temperature

Stations

Nearby Weather Stations

Station Location Temp. Windchill Dew Point Humidity Wind Precip. Elev Updated Type